createdAt,value
2022-10-13T00:00:34.755Z,9.35
2022-10-13T00:03:03.236Z,9.15
2022-10-13T00:05:30.426Z,9.38
2022-10-13T00:07:59.003Z,9.37
2022-10-13T00:10:25.818Z,9.32
2022-10-13T00:12:58.095Z,9.18
2022-10-13T00:15:29.640Z,9.22
2022-10-13T00:17:58.097Z,9.31
2022-10-13T00:20:24.425Z,9.31
2022-10-13T00:23:00.983Z,9.37
2022-10-13T00:25:27.348Z,9.24
2022-10-13T00:27:55.748Z,9.26
2022-10-13T00:30:22.250Z,9.13
2022-10-13T00:32:48.664Z,9.03
2022-10-13T00:35:15.005Z,9.09
2022-10-13T00:37:41.556Z,9.03
2022-10-13T00:40:08.273Z,9.09
2022-10-13T00:42:34.729Z,9.16
2022-10-13T00:45:07.135Z,9.14
2022-10-13T00:47:36.545Z,9.05
2022-10-13T00:50:04.778Z,9.16
2022-10-13T00:52:31.679Z,9.08
2022-10-13T00:54:59.325Z,9.14
2022-10-13T00:57:26.015Z,9.09
2022-10-13T00:59:52.517Z,8.77
2022-10-13T01:02:19.294Z,8.85
2022-10-13T01:04:47.266Z,8.95
2022-10-13T01:07:17.699Z,8.77
2022-10-13T01:09:45.252Z,8.74
2022-10-13T01:12:18.030Z,8.96
2022-10-13T01:14:49.821Z,8.91
2022-10-13T01:17:30.651Z,8.89
2022-10-13T01:20:09.128Z,8.96
2022-10-13T01:22:44.524Z,8.99
2022-10-13T01:25:29.436Z,8.96
2022-10-13T01:28:01.748Z,8.94
2022-10-13T01:30:31.284Z,9.00
2022-10-13T01:32:57.633Z,9.00
2022-10-13T01:35:30.348Z,8.97
2022-10-13T01:38:22.567Z,8.96
2022-10-13T01:40:53.030Z,8.83
2022-10-13T01:43:25.365Z,9.02
2022-10-13T01:45:51.654Z,9.07
2022-10-13T01:48:19.164Z,8.87
2022-10-13T01:50:46.767Z,8.95
2022-10-13T01:53:13.761Z,8.95
2022-10-13T01:55:53.732Z,9.09
2022-10-13T01:58:20.919Z,9.09
2022-10-13T02:00:54.075Z,9.15
2022-10-13T02:03:30.412Z,9.16
2022-10-13T02:06:08.382Z,9.16
2022-10-13T02:08:55.983Z,9.26
2022-10-13T02:11:22.857Z,9.21
2022-10-13T02:14:11.907Z,9.17
2022-10-13T02:16:40.208Z,9.13
2022-10-13T02:19:09.851Z,9.29
2022-10-13T02:21:36.789Z,9.26
2022-10-13T02:24:05.591Z,9.14
2022-10-13T02:26:33.054Z,9.23
2022-10-13T02:29:00.219Z,9.30
2022-10-13T02:31:26.586Z,9.33
2022-10-13T02:33:53.048Z,9.18
2022-10-13T02:36:19.379Z,9.32
2022-10-13T02:38:45.828Z,9.40
2022-10-13T02:41:18.041Z,9.39
2022-10-13T02:43:46.450Z,9.43
2022-10-13T02:46:12.796Z,9.39
2022-10-13T02:48:40.559Z,9.43
2022-10-13T02:51:07.261Z,9.23
2022-10-13T02:53:33.695Z,9.47
2022-10-13T02:56:00.044Z,9.45
2022-10-13T02:58:28.296Z,9.47
2022-10-13T03:00:54.713Z,9.37
2022-10-13T03:03:21.093Z,9.35
2022-10-13T03:05:47.585Z,9.42
2022-10-13T03:08:15.329Z,9.45
2022-10-13T03:10:41.696Z,9.30
2022-10-13T03:13:08.016Z,9.38
2022-10-13T03:15:34.446Z,9.34
2022-10-13T03:18:00.751Z,9.39
2022-10-13T03:20:27.072Z,9.33
2022-10-13T03:22:55.753Z,9.30
2022-10-13T03:25:22.055Z,9.23
2022-10-13T03:27:49.456Z,9.35
2022-10-13T03:30:15.894Z,9.33
2022-10-13T03:32:43.974Z,9.27
2022-10-13T03:35:10.426Z,9.39
2022-10-13T03:37:36.801Z,9.45
2022-10-13T03:40:03.386Z,9.50
2022-10-13T03:42:29.960Z,9.45
2022-10-13T03:44:56.768Z,9.33
2022-10-13T03:47:23.673Z,9.52
2022-10-13T03:49:51.096Z,9.61
2022-10-13T03:52:17.769Z,9.65
2022-10-13T03:54:44.446Z,9.68
2022-10-13T03:57:10.762Z,9.74
2022-10-13T03:59:37.254Z,9.76
2022-10-13T04:02:03.902Z,9.77
2022-10-13T04:04:30.424Z,9.62
2022-10-13T04:06:56.764Z,9.75
2022-10-13T04:09:23.075Z,9.89
2022-10-13T04:11:50.192Z,9.87
2022-10-13T04:14:16.573Z,9.83
2022-10-13T04:16:43.018Z,9.89
2022-10-13T04:19:11.324Z,9.90
2022-10-13T04:21:37.835Z,9.94
2022-10-13T04:24:05.136Z,9.95
2022-10-13T04:26:33.581Z,9.74
2022-10-13T04:29:00.563Z,9.68
2022-10-13T04:31:28.356Z,9.68
2022-10-13T04:33:57.755Z,9.78
2022-10-13T04:36:24.957Z,9.89
2022-10-13T04:38:51.686Z,9.91
2022-10-13T04:41:18.756Z,10.03
2022-10-13T04:43:48.076Z,10.09
2022-10-13T04:46:15.558Z,9.79
2022-10-13T04:48:42.205Z,9.91
2022-10-13T04:51:10.115Z,9.94
2022-10-13T04:53:36.854Z,10.05
2022-10-13T04:56:04.648Z,10.20
2022-10-13T04:58:33.080Z,10.18
2022-10-13T05:00:59.519Z,10.12
2022-10-13T05:03:26.307Z,10.16
2022-10-13T05:05:52.884Z,10.19
2022-10-13T05:08:19.575Z,10.13
2022-10-13T05:10:59.344Z,9.97
2022-10-13T05:13:29.731Z,9.91
2022-10-13T05:15:56.396Z,10.01
2022-10-13T05:18:22.955Z,10.00
2022-10-13T05:20:49.665Z,10.05
2022-10-13T05:23:16.502Z,9.90
2022-10-13T05:25:42.973Z,9.88
2022-10-13T05:28:09.758Z,9.89
2022-10-13T05:30:36.274Z,9.87
2022-10-13T05:33:02.691Z,9.86
2022-10-13T05:35:30.170Z,9.94
2022-10-13T05:37:56.505Z,10.03
2022-10-13T05:40:22.959Z,9.91
2022-10-13T05:42:50.757Z,9.98
2022-10-13T05:45:18.253Z,10.00
2022-10-13T05:47:44.685Z,10.02
2022-10-13T05:50:11.027Z,9.95
2022-10-13T05:52:37.886Z,10.13
2022-10-13T05:55:05.210Z,9.98
2022-10-13T05:57:34.892Z,10.17
2022-10-13T06:00:01.204Z,10.21
2022-10-13T06:02:34.842Z,10.26
2022-10-13T06:05:03.196Z,10.38
2022-10-13T06:07:30.632Z,10.28
2022-10-13T06:09:58.086Z,10.44
2022-10-13T06:12:24.589Z,10.57
2022-10-13T06:14:51.057Z,10.55
2022-10-13T06:17:17.455Z,10.57
2022-10-13T06:19:45.343Z,10.77
2022-10-13T06:22:11.795Z,10.85
2022-10-13T06:24:38.131Z,10.86
2022-10-13T06:27:04.936Z,10.83
2022-10-13T06:29:32.961Z,10.83
2022-10-13T06:31:59.411Z,10.92
2022-10-13T06:34:25.769Z,11.07
2022-10-13T06:36:52.159Z,10.96
2022-10-13T06:39:18.517Z,11.02
2022-10-13T06:41:44.850Z,10.94
2022-10-13T06:44:11.352Z,11.14
2022-10-13T06:46:37.679Z,11.14
2022-10-13T06:49:04.031Z,11.38
2022-10-13T06:51:30.444Z,11.27
2022-10-13T06:53:57.509Z,11.19
2022-10-13T06:56:24.929Z,11.27
2022-10-13T06:58:51.457Z,11.50
2022-10-13T07:01:17.781Z,11.52
2022-10-13T07:03:52.106Z,11.58
2022-10-13T07:06:18.585Z,11.71
2022-10-13T07:08:45.227Z,11.68
2022-10-13T07:11:16.375Z,11.82
2022-10-13T07:13:46.593Z,11.89
2022-10-13T07:16:13.684Z,11.74
2022-10-13T07:18:40.063Z,11.86
2022-10-13T07:21:06.815Z,11.87
2022-10-13T07:23:33.461Z,11.93
2022-10-13T07:26:01.136Z,12.02
2022-10-13T07:28:27.740Z,11.99
2022-10-13T07:30:54.155Z,12.06
2022-10-13T07:33:20.542Z,12.14
2022-10-13T07:35:47.056Z,12.16
2022-10-13T07:38:13.609Z,12.02
2022-10-13T07:40:41.056Z,12.01
2022-10-13T07:43:07.877Z,12.09
2022-10-13T07:45:34.207Z,12.13
2022-10-13T07:48:00.536Z,12.15
2022-10-13T07:50:29.228Z,12.15
2022-10-13T07:52:55.549Z,12.05
2022-10-13T07:55:22.021Z,12.09
2022-10-13T07:57:50.500Z,12.19
2022-10-13T08:00:16.985Z,11.95
2022-10-13T08:02:43.415Z,12.16
2022-10-13T08:05:09.843Z,12.27
2022-10-13T08:07:39.265Z,12.29
2022-10-13T08:10:05.944Z,12.39
2022-10-13T08:12:32.444Z,12.26
2022-10-13T08:15:01.816Z,12.33
2022-10-13T08:17:31.834Z,12.39
2022-10-13T08:19:58.202Z,12.38
2022-10-13T08:22:28.218Z,12.32
2022-10-13T08:24:57.192Z,12.44
2022-10-13T08:27:37.041Z,12.39
2022-10-13T08:30:11.459Z,12.21
2022-10-13T08:32:37.809Z,12.05
2022-10-13T08:35:04.452Z,12.55
2022-10-13T08:37:30.869Z,12.73
2022-10-13T08:39:57.252Z,12.41
2022-10-13T08:42:24.743Z,12.27
2022-10-13T08:45:22.300Z,12.33
2022-10-13T08:47:46.725Z,12.43
2022-10-13T08:50:14.566Z,12.89
2022-10-13T08:53:06.996Z,13.01
2022-10-13T08:55:37.287Z,13.12
2022-10-13T08:58:09.685Z,13.01
2022-10-13T09:00:37.996Z,13.03
2022-10-13T09:03:27.719Z,13.20
2022-10-13T09:06:00.887Z,13.31
2022-10-13T09:08:31.040Z,13.25
2022-10-13T09:10:59.664Z,13.09
2022-10-13T09:13:27.152Z,13.32
2022-10-13T09:15:54.031Z,13.68
2022-10-13T09:18:27.231Z,13.47
2022-10-13T09:21:08.756Z,13.70
2022-10-13T09:23:39.466Z,13.82
2022-10-13T09:26:09.541Z,13.85
2022-10-13T09:28:36.165Z,13.94
2022-10-13T09:31:11.617Z,14.14
2022-10-13T09:33:40.747Z,14.21
2022-10-13T09:36:16.343Z,14.33
2022-10-13T09:38:44.350Z,14.33
2022-10-13T09:41:19.949Z,14.40
2022-10-13T09:43:46.304Z,14.73
2022-10-13T09:46:18.710Z,14.46
2022-10-13T09:48:48.120Z,14.90
2022-10-13T09:51:30.993Z,15.10
2022-10-13T09:53:57.370Z,15.22
2022-10-13T09:56:27.253Z,15.08
2022-10-13T09:58:53.624Z,14.98
2022-10-13T10:01:23.285Z,15.02
2022-10-13T10:03:51.185Z,15.21
2022-10-13T10:06:19.035Z,15.12
2022-10-13T10:09:05.480Z,15.21
2022-10-13T10:11:39.454Z,15.01
2022-10-13T10:14:17.138Z,15.01
2022-10-13T10:16:46.572Z,14.86
2022-10-13T10:19:13.065Z,14.84
2022-10-13T10:21:58.332Z,14.81
2022-10-13T10:24:33.256Z,14.75
2022-10-13T10:27:01.645Z,14.72
2022-10-13T10:29:37.110Z,14.72
2022-10-13T10:32:23.104Z,14.88
2022-10-13T10:35:04.714Z,14.77
2022-10-13T10:37:39.556Z,14.65
2022-10-13T10:40:28.723Z,14.73
2022-10-13T10:43:00.894Z,14.93
2022-10-13T10:45:29.937Z,14.96
2022-10-13T10:48:02.534Z,14.86
2022-10-13T10:50:29.700Z,14.82
2022-10-13T10:53:01.720Z,15.01
2022-10-13T10:55:28.027Z,15.03
2022-10-13T10:57:57.185Z,14.90
2022-10-13T11:00:23.953Z,14.92
2022-10-13T11:02:57.953Z,14.79
2022-10-13T11:05:24.540Z,14.87
2022-10-13T11:07:50.885Z,14.65
2022-10-13T11:10:21.647Z,14.72
2022-10-13T11:12:51.026Z,14.86
2022-10-13T11:15:17.342Z,14.78
2022-10-13T11:17:43.741Z,14.70
2022-10-13T11:20:19.956Z,14.72
2022-10-13T11:22:58.138Z,14.85
2022-10-13T11:25:36.391Z,14.81
2022-10-13T11:28:20.913Z,14.79
2022-10-13T11:30:47.524Z,14.58
2022-10-13T11:33:32.861Z,14.64
2022-10-13T11:36:19.257Z,14.65
2022-10-13T11:38:51.904Z,14.74
2022-10-13T11:41:27.824Z,14.65
2022-10-13T11:44:04.863Z,14.58
2022-10-13T11:46:51.097Z,14.29
2022-10-13T11:49:33.086Z,14.58
2022-10-13T11:52:02.537Z,14.67
2022-10-13T11:54:41.668Z,14.86
2022-10-13T11:57:17.961Z,14.59
2022-10-13T11:59:48.022Z,14.70
2022-10-13T12:02:19.220Z,14.82
2022-10-13T12:05:07.226Z,14.85
2022-10-13T12:07:36.040Z,14.94
2022-10-13T12:10:05.666Z,14.94
2022-10-13T12:12:31.996Z,14.80
2022-10-13T12:15:01.102Z,15.07
2022-10-13T12:17:32.398Z,14.90
2022-10-13T12:20:00.481Z,15.10
2022-10-13T12:22:27.608Z,15.12
2022-10-13T12:25:04.703Z,14.95
2022-10-13T12:27:32.776Z,14.94
2022-10-13T12:29:59.879Z,15.16
2022-10-13T12:32:28.273Z,15.26
2022-10-13T12:34:54.719Z,15.15
2022-10-13T12:37:27.141Z,15.06
2022-10-13T12:39:55.483Z,15.07
2022-10-13T12:42:24.403Z,14.85
2022-10-13T12:44:50.791Z,14.90
2022-10-13T12:47:37.473Z,15.08
2022-10-13T12:50:22.437Z,15.12
2022-10-13T12:52:50.359Z,14.95
2022-10-13T12:55:20.752Z,15.21
2022-10-13T12:57:49.609Z,15.11
2022-10-13T13:00:19.074Z,14.78
2022-10-13T13:02:58.903Z,14.70
2022-10-13T13:05:51.601Z,15.03
2022-10-13T13:08:25.968Z,14.80
2022-10-13T13:10:56.051Z,14.89
2022-10-13T13:13:23.814Z,14.96
2022-10-13T13:15:50.180Z,14.88
2022-10-13T13:18:36.447Z,14.96
2022-10-13T13:21:05.368Z,14.95
2022-10-13T13:23:38.937Z,14.77
2022-10-13T13:26:13.545Z,14.72
2022-10-13T13:29:06.288Z,14.78
2022-10-13T13:31:32.619Z,14.93
2022-10-13T13:33:59.039Z,14.88
2022-10-13T13:36:26.072Z,14.80
2022-10-13T13:38:53.355Z,14.81
2022-10-13T13:41:19.742Z,14.81
2022-10-13T13:43:46.101Z,14.84
2022-10-13T13:46:17.075Z,14.86
2022-10-13T13:48:43.476Z,14.72
2022-10-13T13:51:10.201Z,14.71
2022-10-13T13:53:36.895Z,14.74
2022-10-13T13:56:03.370Z,14.70
2022-10-13T13:58:29.705Z,14.70
2022-10-13T14:00:56.061Z,14.75
2022-10-13T14:03:22.415Z,14.79
2022-10-13T14:05:49.269Z,14.83
2022-10-13T14:08:15.588Z,15.00
2022-10-13T14:10:42.035Z,15.02
2022-10-13T14:13:08.386Z,14.86
2022-10-13T14:15:34.760Z,14.92
2022-10-13T14:18:01.123Z,14.83
2022-10-13T14:20:27.518Z,14.85
2022-10-13T14:22:53.893Z,15.20
2022-10-13T14:25:20.341Z,15.09
2022-10-13T14:27:46.839Z,15.05
2022-10-13T14:30:13.847Z,15.18
2022-10-13T14:32:40.174Z,15.18
2022-10-13T14:35:06.815Z,15.53
2022-10-13T14:37:34.132Z,15.45
2022-10-13T14:40:01.027Z,15.36
2022-10-13T14:42:27.481Z,15.46
2022-10-13T14:44:53.862Z,15.34
2022-10-13T14:47:20.329Z,15.35
2022-10-13T14:49:46.808Z,14.86
2022-10-13T14:52:13.133Z,14.92
2022-10-13T14:54:44.547Z,15.13
2022-10-13T14:57:15.452Z,14.88
2022-10-13T14:59:41.841Z,14.82
2022-10-13T15:02:09.250Z,15.07
2022-10-13T15:04:35.732Z,15.11
2022-10-13T15:07:02.051Z,15.12
2022-10-13T15:09:38.952Z,15.16
2022-10-13T15:12:15.705Z,14.79
2022-10-13T15:14:42.075Z,15.05
2022-10-13T15:17:08.394Z,14.92
2022-10-13T15:19:34.726Z,14.84
2022-10-13T15:22:01.062Z,15.00
2022-10-13T15:24:27.535Z,14.99
2022-10-13T15:26:53.848Z,14.94
2022-10-13T15:29:20.191Z,15.00
2022-10-13T15:31:46.516Z,14.89
2022-10-13T15:34:12.841Z,14.59
2022-10-13T15:36:39.247Z,14.70
2022-10-13T15:39:05.943Z,14.84
2022-10-13T15:41:32.318Z,14.81
2022-10-13T15:43:58.831Z,14.96
2022-10-13T15:46:26.231Z,14.97
2022-10-13T15:48:53.351Z,15.00
2022-10-13T15:51:21.023Z,14.97
2022-10-13T15:53:48.057Z,14.95
2022-10-13T15:56:14.706Z,14.89
2022-10-13T15:58:41.105Z,14.83
2022-10-13T16:01:11.485Z,14.74
2022-10-13T16:03:38.507Z,14.71
2022-10-13T16:06:05.884Z,14.73
2022-10-13T16:08:32.379Z,14.66
2022-10-13T16:10:58.745Z,14.52
2022-10-13T16:13:25.288Z,14.51
2022-10-13T16:15:58.796Z,14.49
2022-10-13T16:18:28.760Z,14.46
2022-10-13T16:20:55.079Z,14.41
2022-10-13T16:23:21.432Z,14.29
2022-10-13T16:25:47.994Z,14.07
2022-10-13T16:28:15.151Z,14.12
2022-10-13T16:30:42.983Z,14.15
2022-10-13T16:33:09.392Z,14.08
2022-10-13T16:35:35.717Z,13.99
2022-10-13T16:38:02.102Z,13.99
2022-10-13T16:40:28.429Z,13.95
2022-10-13T16:42:55.250Z,13.85
2022-10-13T16:45:41.382Z,13.84
2022-10-13T16:48:08.228Z,13.88
2022-10-13T16:50:37.308Z,13.85
2022-10-13T16:53:03.645Z,13.78
2022-10-13T16:55:30.036Z,13.76
2022-10-13T16:57:56.372Z,13.74
2022-10-13T17:00:22.811Z,13.72
2022-10-13T17:02:49.175Z,13.67
2022-10-13T17:05:15.610Z,13.65
2022-10-13T17:07:41.989Z,13.56
2022-10-13T17:10:08.577Z,13.62
2022-10-13T17:12:34.941Z,13.56
2022-10-13T17:15:01.279Z,13.45
2022-10-13T17:17:27.599Z,13.28
2022-10-13T17:19:53.948Z,13.29
2022-10-13T17:22:20.281Z,13.30
2022-10-13T17:24:48.345Z,13.28
2022-10-13T17:27:17.733Z,13.21
2022-10-13T17:29:44.777Z,13.25
2022-10-13T17:32:11.135Z,13.26
2022-10-13T17:34:37.643Z,13.21
2022-10-13T17:37:04.274Z,13.30
2022-10-13T17:39:30.867Z,13.19
2022-10-13T17:41:57.324Z,13.28
2022-10-13T17:44:23.755Z,13.26
2022-10-13T17:46:50.169Z,13.25
2022-10-13T17:49:17.613Z,13.31
2022-10-13T17:51:45.605Z,13.37
2022-10-13T17:54:16.068Z,13.37
2022-10-13T17:56:45.071Z,13.37
2022-10-13T17:59:11.937Z,13.34
2022-10-13T18:01:42.010Z,13.30
2022-10-13T18:04:11.208Z,13.29
2022-10-13T18:06:40.594Z,13.24
2022-10-13T18:09:08.408Z,13.29
2022-10-13T18:11:34.952Z,13.24
2022-10-13T18:14:02.030Z,13.28
2022-10-13T18:16:35.239Z,13.28
2022-10-13T18:19:02.056Z,13.25
2022-10-13T18:21:29.243Z,13.19
2022-10-13T18:23:59.834Z,13.24
2022-10-13T18:26:28.137Z,13.22
2022-10-13T18:28:55.027Z,13.08
2022-10-13T18:31:22.911Z,13.16
2022-10-13T18:33:49.553Z,13.18
2022-10-13T18:36:23.618Z,13.09
2022-10-13T18:38:50.548Z,13.13
2022-10-13T18:41:17.464Z,12.98
2022-10-13T18:43:47.041Z,12.84
2022-10-13T18:46:13.399Z,12.82
2022-10-13T18:48:40.708Z,12.94
2022-10-13T18:51:14.455Z,12.96
2022-10-13T18:53:42.097Z,12.88
2022-10-13T18:56:09.988Z,12.98
2022-10-13T18:58:36.300Z,12.92
2022-10-13T19:01:04.428Z,12.92
2022-10-13T19:03:32.904Z,12.95
2022-10-13T19:06:02.809Z,12.75
2022-10-13T19:08:29.437Z,12.88
2022-10-13T19:10:56.028Z,12.86
2022-10-13T19:13:23.863Z,12.80
2022-10-13T19:15:50.264Z,12.73
2022-10-13T19:18:16.813Z,12.73
2022-10-13T19:20:44.158Z,12.85
2022-10-13T19:23:14.608Z,12.84
2022-10-13T19:25:41.713Z,12.77
2022-10-13T19:28:08.681Z,12.70
2022-10-13T19:30:36.152Z,12.71
2022-10-13T19:33:02.496Z,12.68
2022-10-13T19:35:28.899Z,12.63
2022-10-13T19:37:55.309Z,12.58
2022-10-13T19:40:21.734Z,12.52
2022-10-13T19:42:48.279Z,12.33
2022-10-13T19:45:14.698Z,12.32
2022-10-13T19:47:41.146Z,12.32
2022-10-13T19:50:07.711Z,12.31
2022-10-13T19:52:34.455Z,12.36
2022-10-13T19:55:01.205Z,12.26
2022-10-13T19:57:27.631Z,12.24
2022-10-13T19:59:54.022Z,12.22
2022-10-13T20:02:20.384Z,12.29
2022-10-13T20:04:46.795Z,12.29
2022-10-13T20:07:13.129Z,12.30
2022-10-13T20:09:40.554Z,12.26
2022-10-13T20:12:07.003Z,12.25
2022-10-13T20:14:34.554Z,12.25
2022-10-13T20:17:00.963Z,12.29
2022-10-13T20:19:27.516Z,12.31
2022-10-13T20:21:54.178Z,12.32
2022-10-13T20:24:21.669Z,12.27
2022-10-13T20:26:48.095Z,12.35
2022-10-13T20:29:14.778Z,12.23
2022-10-13T20:31:41.561Z,12.16
2022-10-13T20:34:12.304Z,12.30
2022-10-13T20:36:39.311Z,12.31
2022-10-13T20:39:06.354Z,12.33
2022-10-13T20:41:34.890Z,12.36
2022-10-13T20:44:01.274Z,12.33
2022-10-13T20:46:27.669Z,12.26
2022-10-13T20:49:11.481Z,12.13
2022-10-13T20:51:45.711Z,12.08
2022-10-13T20:54:13.082Z,12.18
2022-10-13T20:56:39.901Z,12.20
2022-10-13T20:59:07.656Z,12.21
2022-10-13T21:01:35.842Z,12.23
2022-10-13T21:04:02.837Z,12.20
2022-10-13T21:06:29.164Z,12.18
2022-10-13T21:08:55.811Z,12.17
2022-10-13T21:11:23.308Z,12.13
2022-10-13T21:13:50.103Z,12.16
2022-10-13T21:16:21.158Z,12.15
2022-10-13T21:18:49.004Z,12.16
2022-10-13T21:21:16.809Z,12.18
2022-10-13T21:23:44.218Z,12.23
2022-10-13T21:26:10.611Z,12.29
2022-10-13T21:28:37.903Z,12.24
2022-10-13T21:31:08.679Z,12.16
2022-10-13T21:33:35.962Z,12.13
2022-10-13T21:36:06.326Z,12.11
2022-10-13T21:38:34.848Z,12.05
2022-10-13T21:41:03.643Z,12.11
2022-10-13T21:43:31.059Z,12.04
2022-10-13T21:45:57.536Z,12.04
2022-10-13T21:48:24.923Z,12.01
2022-10-13T21:50:51.230Z,12.00
2022-10-13T21:53:17.543Z,11.86
2022-10-13T21:55:43.976Z,11.75
2022-10-13T21:58:11.423Z,11.75
2022-10-13T22:00:37.833Z,11.78
2022-10-13T22:03:04.151Z,11.77
2022-10-13T22:05:30.611Z,11.79
2022-10-13T22:07:57.000Z,11.64
2022-10-13T22:10:23.430Z,11.67
2022-10-13T22:12:49.804Z,11.68
2022-10-13T22:15:16.153Z,11.54
2022-10-13T22:17:42.567Z,11.57
2022-10-13T22:20:09.108Z,11.62
2022-10-13T22:22:35.705Z,11.60
2022-10-13T22:25:02.153Z,11.57
2022-10-13T22:27:28.473Z,11.67
2022-10-13T22:29:54.960Z,11.52
2022-10-13T22:32:21.322Z,11.66
2022-10-13T22:34:47.761Z,11.62
2022-10-13T22:37:14.125Z,11.76
2022-10-13T22:39:40.552Z,11.80
2022-10-13T22:42:06.958Z,11.85
2022-10-13T22:44:33.380Z,11.88
2022-10-13T22:46:59.875Z,11.82
2022-10-13T22:49:26.321Z,11.89
2022-10-13T22:51:52.691Z,12.01
2022-10-13T22:54:19.009Z,12.03
2022-10-13T22:56:45.513Z,12.03
2022-10-13T22:59:12.962Z,12.05
2022-10-13T23:01:39.366Z,11.90
2022-10-13T23:04:06.013Z,11.81
2022-10-13T23:06:33.399Z,11.93
2022-10-13T23:09:01.398Z,11.94
2022-10-13T23:11:28.180Z,11.97
2022-10-13T23:13:54.592Z,11.86
2022-10-13T23:16:22.693Z,11.87
2022-10-13T23:18:49.222Z,11.77
2022-10-13T23:21:16.767Z,11.75
2022-10-13T23:23:45.573Z,11.81
2022-10-13T23:26:14.009Z,11.78
2022-10-13T23:28:40.560Z,11.87
2022-10-13T23:31:07.925Z,11.95
2022-10-13T23:33:34.477Z,11.85
2022-10-13T23:36:01.288Z,11.86
2022-10-13T23:38:28.387Z,11.81
2022-10-13T23:40:54.999Z,11.80
2022-10-13T23:43:21.493Z,11.82
2022-10-13T23:45:48.001Z,11.76
2022-10-13T23:48:15.226Z,11.85
2022-10-13T23:50:41.559Z,11.88
2022-10-13T23:53:08.005Z,11.82
2022-10-13T23:55:37.330Z,11.78
2022-10-13T23:58:03.745Z,11.78
